Norwegian Crown — C6II4 — position and weather

sailwx.info

Track history (hours):
 
Tides and Currents Weather Stations Pressure Air Temp Water Temp Dewpoint Dewpoint Depression Visibility Wind Speed Wind Dir Waves Ship Positions

Norwegian Crown

Operator: Norwegian Cruise Line

Last reported at 2018-Jul-19 05:30 UTC. Time now 2018-Jul-19 05:47 UTC.
Position N 60°44' E 004°44'.

Type: Ship. MMSI: 308785000.

Date/timePositionNaut miles runAvg speedWind from/ knotsBaromVisibWave heightAir tempDewpointWater temp
2018-Jul-19 05:30N 60°44' E 004°44'510.8
2018-Jul-19 05:00N 60°46' E 004°34'611.3
2018-Jul-19 04:30N 60°51' E 004°27'815.1
2018-Jul-19 03:59N 60°58' E 004°22'816.0
2018-Jul-19 03:29N 61°06' E 004°18'8313.6
2018-Jul-18 21:22N 62°27' E 004°55'615.5
2018-Jul-18 21:00N 62°31' E 005°05'815.6
2018-Jul-18 20:30N 62°36' E 005°18'815.5
2018-Jul-18 20:00N 62°40' E 005°32'815.6
2018-Jul-18 19:30N 62°45' E 005°46'815.5
2018-Jul-18 19:00N 62°49' E 005°59'815.4
2018-Jul-18 18:30N 62°54' E 006°12'815.4
2018-Jul-18 18:00N 62°59' E 006°26'815.7
2018-Jul-18 17:30N 63°03' E 006°41'815.7
2018-Jul-18 17:00N 63°07' E 006°55'815.6
2018-Jul-18 16:30N 63°11' E 007°10'815.5
2018-Jul-18 16:00N 63°14' E 007°26'714.0
2018-Jul-18 15:30N 63°14' E 007°42'4 8.9
2018-Jul-18 15:00N 63°10' E 007°43'4 8.0
2018-Jul-18 14:30N 63°06' E 007°45'1 0.8
2018-Jul-18 13:30N 63°07' E 007°44'0 0.0
2018-Jul-18 13:00N 63°07' E 007°44'0 0.0
2018-Jul-18 12:30N 63°07' E 007°44'0 0.0
2018-Jul-18 12:00N 63°07' E 007°44'0 0.0
2018-Jul-18 11:30N 63°07' E 007°44'0 0.0
2018-Jul-18 10:30N 63°07' E 007°44'0 0.0
2018-Jul-18 10:00N 63°07' E 007°44'0 0.0
2018-Jul-18 09:30N 63°07' E 007°44'0 0.0
2018-Jul-18 09:00N 63°07' E 007°44'0 0.0
2018-Jul-18 08:30N 63°07' E 007°44'0 0.0
2018-Jul-18 08:00N 63°07' E 007°44'0 0.0
2018-Jul-18 07:30N 63°07' E 007°44'0 0.0
2018-Jul-18 07:00N 63°07' E 007°44'0 0.0
2018-Jul-18 06:30N 63°07' E 007°44'0 0.0
2018-Jul-18 06:00N 63°07' E 007°44'0 0.0
2018-Jul-18 05:30N 63°07' E 007°44'0 0.5
2018-Jul-18 05:01N 63°07' E 007°45'2 4.7
2018-Jul-18 04:30N 63°08' E 007°41'611.4
2018-Jul-18 04:00N 63°14' E 007°43'510.2
2018-Jul-18 03:30N 63°14' E 007°32'511.2
2018-Jul-18 03:00N 63°13' E 007°20'611.8
2018-Jul-18 02:30N 63°10' E 007°08'611.9
2018-Jul-18 02:00N 63°08' E 006°56'611.8
2018-Jul-18 01:30N 63°04' E 006°45'611.2
2018-Jul-18 00:59N 63°01' E 006°35'511.2
2018-Jul-18 00:30N 62°59' E 006°24'611.1
2018-Jul-18 00:00N 62°56' E 006°14'611.1
2018-Jul-17 23:30N 62°52' E 006°06'510.8
2018-Jul-17 23:00N 62°48' E 005°58'510.7
2018-Jul-17 22:30N 62°44' E 005°50'510.6
2018-Jul-17 22:00N 62°40' E 005°42'5 9.9
2018-Jul-17 21:30N 62°35' E 005°39'610.9
2018-Jul-17 21:00N 62°30' E 005°45'510.8
2018-Jul-17 20:30N 62°27' E 005°54'510.0
2018-Jul-17 20:00N 62°25' E 006°03'713.0
2018-Jul-17 19:30N 62°24' E 006°17'816.0
2018-Jul-17 19:00N 62°26' E 006°34'815.1
2018-Jul-17 18:30N 62°26' E 006°50'714.5
2018-Jul-17 18:00N 62°20' E 006°57'815.6
2018-Jul-17 17:30N 62°12' E 007°01'713.6
2018-Jul-17 17:00N 62°06' E 007°00'2 3.1
2018-Jul-17 16:30N 62°05' E 007°03'5 0.6
2018-Jul-17 07:25N 62°05' E 006°53'3 6.7
2018-Jul-17 07:00N 62°06' E 006°58'4 7.6
2018-Jul-17 06:31N 62°06' E 007°06'3 5.8
2018-Jul-17 06:00N 62°06' E 007°00'4 8.5
2018-Jul-17 05:31N 62°10' E 007°01'4 8.9
2018-Jul-17 05:00N 62°14' E 007°01'510.7
2018-Jul-17 04:30N 62°20' E 006°57'713.3
2018-Jul-17 04:00N 62°26' E 006°53'714.3
2018-Jul-17 03:30N 62°27' E 006°38'816.1
2018-Jul-17 03:00N 62°24' E 006°22'815.1
2018-Jul-17 02:30N 62°23' E 006°05'815.7
2018-Jul-17 02:00N 62°28' E 005°51'815.1
2018-Jul-17 01:30N 62°30' E 005°35'714.0
2018-Jul-17 01:00N 62°30' E 005°20'814.3
2018-Jul-17 00:29N 62°30' E 005°04'1913.6
2018-Jul-16 23:06N 62°16' E 004°37'114.4
2018-Jul-16 23:00N 62°15' E 004°35'1114.1
2018-Jul-16 22:15N 62°05' E 004°27'414.4
2018-Jul-16 21:59N 62°03' E 004°34'714.9
2018-Jul-16 21:30N 61°60' E 004°48'714.5
2018-Jul-16 21:00N 61°56' E 005°00'814.9
2018-Jul-16 20:30N 61°54' E 005°16'510.7
2018-Jul-16 20:00N 61°55' E 005°27'510.9
2018-Jul-16 19:30N 61°54' E 005°38'510.5
2018-Jul-16 19:00N 61°51' E 005°48'510.3
2018-Jul-16 18:30N 61°52' E 005°59'510.4
2018-Jul-16 17:59N 61°51' E 006°10'510.4
2018-Jul-16 17:30N 61°51' E 006°20'6 0.5
2018-Jul-16 05:37N 61°52' E 006°34'215.7
2018-Jul-16 05:30N 61°50' E 006°32'714.5
2018-Jul-16 04:59N 61°51' E 006°17'715.5
2018-Jul-16 04:30N 61°51' E 006°01'714.7
2018-Jul-16 04:00N 61°52' E 005°46'815.3
2018-Jul-16 03:30N 61°55' E 005°31'815.1
2018-Jul-16 03:00N 61°54' E 005°15'714.2
2018-Jul-16 02:30N 61°56' E 005°01'713.4
2018-Jul-16 01:58N 61°58' E 004°46'715.5
2018-Jul-16 01:30N 61°52' E 004°37'816.1
2018-Jul-16 01:00N 61°45' E 004°29'816.2
2018-Jul-16 00:30N 61°37' E 004°28'816.4
2018-Jul-15 23:59N 61°29' E 004°25'816.6
2018-Jul-15 23:30N 61°21' E 004°21'714.9
2018-Jul-15 23:00N 61°14' E 004°29'815.6
2018-Jul-15 22:30N 61°15' E 004°46'815.5
2018-Jul-15 22:00N 61°12' E 005°01'816.8
2018-Jul-15 21:30N 61°06' E 005°13'815.9
2018-Jul-15 20:59N 61°05' E 005°30'816.9
2018-Jul-15 20:30N 61°08' E 005°46'816.2
2018-Jul-15 20:00N 61°08' E 006°02'816.1
2018-Jul-15 19:30N 61°07' E 006°19'714.8
2018-Jul-15 19:00N 61°08' E 006°34'713.1
2018-Jul-15 18:30N 61°10' E 006°47'715.0
2018-Jul-15 18:00N 61°05' E 006°59'713.9
2018-Jul-15 17:30N 60°58' E 007°01'1 1.1
2018-Jul-15 16:59N 60°58' E 006°60'4 7.8
2018-Jul-15 16:30N 60°57' E 007°07'5 9.3
2018-Jul-15 16:00N 60°53' E 007°08'1 1.9
2018-Jul-15 15:28N 60°52' E 007°07'0 0.0
2018-Jul-15 14:58N 60°52' E 007°07'0 0.0
2018-Jul-15 14:28N 60°52' E 007°07'0 0.0
2018-Jul-15 13:58N 60°52' E 007°07'0 0.0
2018-Jul-15 13:28N 60°52' E 007°07'0 0.0
2018-Jul-15 12:58N 60°52' E 007°07'0 0.0
2018-Jul-15 12:28N 60°52' E 007°07'0 0.0
2018-Jul-15 11:58N 60°52' E 007°07'0 0.0
2018-Jul-15 11:28N 60°52' E 007°07'0 0.0
2018-Jul-15 10:58N 60°52' E 007°07'0 0.0
2018-Jul-15 10:28N 60°52' E 007°07'0 0.0
2018-Jul-15 09:58N 60°52' E 007°07'0 0.0
2018-Jul-15 09:28N 60°52' E 007°07'0 0.0
2018-Jul-15 08:58N 60°52' E 007°07'0 0.0
2018-Jul-15 08:28N 60°52' E 007°07'0 0.0
2018-Jul-15 07:58N 60°52' E 007°07'0 0.0
2018-Jul-15 07:28N 60°52' E 007°07'0 0.0
2018-Jul-15 06:58N 60°52' E 007°07'0 0.0
2018-Jul-15 06:28N 60°52' E 007°07'0 0.0
2018-Jul-15 05:58N 60°52' E 007°07'0 0.0
2018-Jul-15 05:29N 60°52' E 007°07'0 0.7
2018-Jul-15 05:00N 60°52' E 007°08'2 3.5
2018-Jul-15 04:30N 60°54' E 007°09'510.0
2018-Jul-15 03:59N 60°58' E 007°05'510.9
2018-Jul-15 03:30N 61°04' E 007°01'611.9
2018-Jul-15 03:00N 61°08' E 006°53'612.3
2018-Jul-15 02:30N 61°11' E 006°42'510.4
2018-Jul-15 02:00N 61°08' E 006°33'612.2
2018-Jul-15 01:30N 61°06' E 006°21'612.7
2018-Jul-15 01:00N 61°08' E 006°08'611.4
2018-Jul-15 00:30N 61°08' E 005°56'613.2
2018-Jul-15 00:00N 61°07' E 005°43'816.1
2018-Jul-14 23:30N 61°04' E 005°27'815.9
2018-Jul-14 23:00N 61°06' E 005°11'815.9
2018-Jul-14 22:30N 61°03' E 004°56'816.2
2018-Jul-14 22:00N 60°57' E 004°43'815.6
2018-Jul-14 21:30N 60°51' E 004°34'713.4
2018-Jul-14 21:00N 60°45' E 004°29'816.0
2018-Jul-14 20:30N 60°37' E 004°34'816.7
2018-Jul-14 20:00N 60°29' E 004°38'917.1
2018-Jul-14 19:29N 60°20' E 004°43'817.1
2018-Jul-14 19:00N 60°12' E 004°47'816.5
2018-Jul-14 18:30N 60°04' E 004°51'815.6
2018-Jul-14 18:00N 59°57' E 004°57'815.9
2018-Jul-14 17:30N 59°58' E 005°12'713.9
2018-Jul-14 17:00N 59°57' E 005°26'815.6
2018-Jul-14 16:30N 59°50' E 005°33'4 8.3
2018-Jul-14 16:01N 59°52' E 005°41'816.0
2018-Jul-14 15:30N 59°58' E 005°50'815.9
2018-Jul-14 15:00N 60°04' E 006°00'5 9.6
2018-Jul-14 14:29N 60°06' E 006°10'9 9.3
2018-Jul-14 13:30N 60°15' E 006°11'613.2
2018-Jul-14 13:00N 60°21' E 006°18'610.8
2018-Jul-14 12:30N 60°24' E 006°26'713.7
2018-Jul-14 12:00N 60°26' E 006°40'815.1
2018-Jul-14 11:28N 60°29' E 006°54'5 9.6
2018-Jul-14 11:00N 60°29' E 007°03'4 7.8
2018-Jul-14 10:30N 60°29' E 006°56'510.4
2018-Jul-14 09:59N 60°27' E 006°46'5 9.3
2018-Jul-14 09:30N 60°26' E 006°37'510.3
2018-Jul-14 09:00N 60°25' E 006°27'611.4
2018-Jul-14 08:30N 60°21' E 006°18'611.4
2018-Jul-14 08:01N 60°16' E 006°12'611.2
2018-Jul-14 07:30N 60°12' E 006°04'611.2
2018-Jul-14 07:00N 60°07' E 006°05'611.7
2018-Jul-14 06:30N 60°02' E 005°57'611.7
2018-Jul-14 06:00N 59°58' E 005°49'611.6
2018-Jul-14 05:30N 59°53' E 005°43'611.4
2018-Jul-14 04:59N 59°48' E 005°36'510.4
2018-Jul-14 04:30N 59°44' E 005°30'714.0
2018-Jul-14 04:00N 59°39' E 005°20'713.2
2018-Jul-14 03:29N 59°34' E 005°12'511.3
2018-Jul-14 03:00N 59°34' E 005°01'611.3
2018-Jul-14 02:29N 59°34' E 004°50'25 9.2
2018-Jul-13 23:48N 59°12' E 004°28'715.5
2018-Jul-13 23:20N 59°09' E 004°41'616.0
2018-Jul-13 22:59N 59°07' E 004°51'815.9
2018-Jul-13 22:30N 59°04' E 005°05'815.5
2018-Jul-13 22:00N 59°05' E 005°19'612.6
2018-Jul-13 21:30N 59°06' E 005°32'713.6
2018-Jul-13 21:00N 59°01' E 005°41'713.5
2018-Jul-13 20:30N 58°59' E 005°53'815.0
2018-Jul-13 20:00N 58°54' E 006°04'611.8
2018-Jul-13 19:30N 58°59' E 006°11'815.7
2018-Jul-13 19:00N 59°01' E 006°25'4 7.0
2018-Jul-13 18:30N 59°02' E 006°32'714.6
2018-Jul-13 18:00N 59°00' E 006°19'713.3
2018-Jul-13 17:31N 58°57' E 006°08'4 7.6
2018-Jul-13 17:01N 58°55' E 006°01'816.8
2018-Jul-13 16:30N 59°01' E 005°49'612.4
2018-Jul-13 16:00N 59°02' E 005°37'713.8
2018-Jul-13 15:30N 59°06' E 005°27'611.8
2018-Jul-13 15:00N 59°02' E 005°20'1615.5
2018-Jul-13 14:00N 58°49' E 005°01'815.4
2018-Jul-13 13:30N 58°44' E 004°51'815.4
2018-Jul-13 13:00N 58°38' E 004°41'815.3
2018-Jul-13 12:30N 58°33' E 004°31'815.4
2018-Jul-13 12:00N 58°27' E 004°21'815.7
2018-Jul-13 11:30N 58°22' E 004°09'1215.6
2018-Jul-13 10:45N 58°15' E 003°51'415.6
2018-Jul-13 10:30N 58°13' E 003°45'815.6
2018-Jul-13 09:58N 58°08' E 003°32'815.8
2018-Jul-13 09:29N 58°04' E 003°20'816.0
2018-Jul-13 09:00N 57°59' E 003°08'816.1
2018-Jul-13 08:29N 57°54' E 002°56'816.3
2018-Jul-13 07:58N 57°49' E 002°43'816.3
2018-Jul-13 07:31N 57°45' E 002°32'16315.9
2018-Jul-12 21:19N 56°19' W 001°42'1516.2
2018-Jul-12 20:22N 56°13' W 002°07'616.3
2018-Jul-12 20:01N 56°11' W 002°17'816.2
2018-Jul-12 19:31N 56°07' W 002°30'816.1
2018-Jul-12 19:01N 56°06' W 002°44'816.3
2018-Jul-12 18:31N 56°03' W 002°58'612.2
2018-Jul-12 18:01N 56°03' W 003°09'9 0.7
2018-Jul-12 05:40N 56°01' W 003°25'1 6.5
2018-Jul-12 05:30N 56°00' W 003°23'510.5
2018-Jul-12 05:00N 56°02' W 003°14'611.3
2018-Jul-12 04:30N 56°04' W 003°05'612.3
2018-Jul-12 04:00N 56°06' W 002°54'5 9.4
2018-Jul-12 03:29N 56°07' W 002°46'510.2
2018-Jul-12 03:01N 56°07' W 002°37'5 9.6
2018-Jul-12 02:30N 56°09' W 002°29'5 9.9
2018-Jul-12 02:00N 56°11' W 002°21'510.0
2018-Jul-12 01:30N 56°13' W 002°13'7311.4
2018-Jul-11 19:08N 57°03' W 000°37'511.2
2018-Jul-11 18:41N 57°07' W 000°31'211.2
2018-Jul-11 18:29N 57°09' W 000°28'611.1
2018-Jul-11 17:56N 57°13' W 000°20'1710.9
2018-Jul-11 16:21N 57°25' E 000°03'411.1
2018-Jul-11 16:00N 57°28' E 000°08'611.4
2018-Jul-11 15:28N 57°32' E 000°17'611.5
2018-Jul-11 14:58N 57°36' E 000°24'911.6
2018-Jul-11 14:11N 57°42' E 000°36'211.9
2018-Jul-11 13:59N 57°44' E 000°40'3311.9
2018-Jul-11 11:12N 58°08' E 001°22'311.8
2018-Jul-11 10:58N 58°10' E 001°26'711.8
2018-Jul-11 10:22N 58°15' E 001°36'411.9
2018-Jul-11 10:00N 58°18' E 001°41'611.6
2018-Jul-11 09:30N 58°23' E 001°49'4811.3
2018-Jul-11 05:17N 58°54' E 002°57'1311.2
2018-Jul-11 04:06N 59°05' E 003°12'111.5
2018-Jul-11 03:59N 59°06' E 003°14'611.4
2018-Jul-11 03:29N 59°10' E 003°21'611.5
2018-Jul-11 02:57N 59°15' E 003°28'511.5
2018-Jul-11 02:30N 59°19' E 003°34'711.6
2018-Jul-11 01:55N 59°25' E 003°41'511.2
2018-Jul-11 01:30N 59°29' E 003°45'711.2
2018-Jul-11 00:53N 59°35' E 003°51'410.8
2018-Jul-11 00:30N 59°39' E 003°55'610.9
2018-Jul-10 23:58N 59°43' E 004°04'510.8
2018-Jul-10 23:28N 59°46' E 004°12'510.8
2018-Jul-10 22:59N 59°50' E 004°20'611.2
2018-Jul-10 22:29N 59°54' E 004°27'611.8
2018-Jul-10 22:00N 59°59' E 004°34'611.4
2018-Jul-10 21:30N 60°03' E 004°42'815.8
2018-Jul-10 21:00N 60°08' E 004°54'713.3
2018-Jul-10 20:30N 60°10' E 005°07'713.8
2018-Jul-10 20:00N 60°17' E 005°11'612.1
2018-Jul-10 19:30N 60°23' E 005°10'4 8.8
2018-Jul-10 19:00N 60°24' E 005°18'0 0.4
2018-Jul-10 18:30N 60°24' E 005°19'0 0.0
2018-Jul-10 18:00N 60°24' E 005°19'0 0.0
2018-Jul-10 17:30N 60°24' E 005°19'0 0.0
2018-Jul-10 17:00N 60°24' E 005°19'0 0.0
2018-Jul-10 16:30N 60°24' E 005°19'0 0.0
2018-Jul-10 16:00N 60°24' E 005°19'0 0.0
2018-Jul-10 15:30N 60°24' E 005°19'0 0.0
2018-Jul-10 15:00N 60°24' E 005°19'0 0.0
2018-Jul-10 14:30N 60°24' E 005°19'0 0.0
2018-Jul-10 14:00N 60°24' E 005°19'0 0.0
2018-Jul-10 13:30N 60°24' E 005°19'0 0.0
2018-Jul-10 13:00N 60°24' E 005°19'0 0.0
2018-Jul-10 12:30N 60°24' E 005°19'0 0.0
2018-Jul-10 12:00N 60°24' E 005°19'0 0.0
2018-Jul-10 11:30N 60°24' E 005°19'0 0.0
2018-Jul-10 11:00N 60°24' E 005°19'0 0.0
2018-Jul-10 10:30N 60°24' E 005°19'0 0.0
2018-Jul-10 10:00N 60°24' E 005°19'0 0.0
2018-Jul-10 09:30N 60°24' E 005°19'0 0.0
2018-Jul-10 09:00N 60°24' E 005°19'0 0.0
2018-Jul-10 08:30N 60°24' E 005°19'0 0.0
2018-Jul-10 08:00N 60°24' E 005°19'0 0.0
2018-Jul-10 07:30N 60°24' E 005°19'0 0.0
2018-Jul-10 07:00N 60°24' E 005°19'0 0.0
2018-Jul-10 06:30N 60°24' E 005°19'2 3.4
2018-Jul-10 06:00N 60°24' E 005°15'5 9.3
2018-Jul-10 05:30N 60°20' E 005°12'714.4
2018-Jul-10 05:00N 60°13' E 005°11'612.0
2018-Jul-10 04:30N 60°09' E 005°02'612.2
2018-Jul-10 04:00N 60°08' E 004°50'714.4
2018-Jul-10 03:30N 60°08' E 004°35'  
Track history (hours):
 
Tides and Currents Weather Stations Pressure Air Temp Water Temp Dewpoint Dewpoint Depression Visibility Wind Speed Wind Dir Waves Ship Positions

Norwegian Crown

Operator: Norwegian Cruise Line

Last reported at 2018-Jul-19 05:30 UTC. Time now 2018-Jul-19 05:47 UTC.
Position N 60°44' E 004°44'.

Type: Ship. MMSI: 308785000.

Date/timePositionNaut miles runAvg speedWind from/ knotsBaromVisibWave heightAir tempDewpointWater temp
2018-Jul-19 05:30N 60°44' E 004°44'510.8
2018-Jul-19 05:00N 60°46' E 004°34'611.3
2018-Jul-19 04:30N 60°51' E 004°27'815.1
2018-Jul-19 03:59N 60°58' E 004°22'816.0
2018-Jul-19 03:29N 61°06' E 004°18'8313.6
2018-Jul-18 21:22N 62°27' E 004°55'615.5
2018-Jul-18 21:00N 62°31' E 005°05'815.6
2018-Jul-18 20:30N 62°36' E 005°18'815.5
2018-Jul-18 20:00N 62°40' E 005°32'815.6
2018-Jul-18 19:30N 62°45' E 005°46'815.5
2018-Jul-18 19:00N 62°49' E 005°59'815.4
2018-Jul-18 18:30N 62°54' E 006°12'815.4
2018-Jul-18 18:00N 62°59' E 006°26'815.7
2018-Jul-18 17:30N 63°03' E 006°41'815.7
2018-Jul-18 17:00N 63°07' E 006°55'815.6
2018-Jul-18 16:30N 63°11' E 007°10'815.5
2018-Jul-18 16:00N 63°14' E 007°26'714.0
2018-Jul-18 15:30N 63°14' E 007°42'4 8.9
2018-Jul-18 15:00N 63°10' E 007°43'4 8.0
2018-Jul-18 14:30N 63°06' E 007°45'1 0.8
2018-Jul-18 13:30N 63°07' E 007°44'0 0.0
2018-Jul-18 13:00N 63°07' E 007°44'0 0.0
2018-Jul-18 12:30N 63°07' E 007°44'0 0.0
2018-Jul-18 12:00N 63°07' E 007°44'0 0.0
2018-Jul-18 11:30N 63°07' E 007°44'0 0.0
2018-Jul-18 10:30N 63°07' E 007°44'0 0.0
2018-Jul-18 10:00N 63°07' E 007°44'0 0.0
2018-Jul-18 09:30N 63°07' E 007°44'0 0.0
2018-Jul-18 09:00N 63°07' E 007°44'0 0.0
2018-Jul-18 08:30N 63°07' E 007°44'0 0.0
2018-Jul-18 08:00N 63°07' E 007°44'0 0.0
2018-Jul-18 07:30N 63°07' E 007°44'0 0.0
2018-Jul-18 07:00N 63°07' E 007°44'0 0.0
2018-Jul-18 06:30N 63°07' E 007°44'0 0.0
2018-Jul-18 06:00N 63°07' E 007°44'0 0.0
2018-Jul-18 05:30N 63°07' E 007°44'0 0.5
2018-Jul-18 05:01N 63°07' E 007°45'2 4.7
2018-Jul-18 04:30N 63°08' E 007°41'611.4
2018-Jul-18 04:00N 63°14' E 007°43'510.2
2018-Jul-18 03:30N 63°14' E 007°32'511.2
2018-Jul-18 03:00N 63°13' E 007°20'611.8
2018-Jul-18 02:30N 63°10' E 007°08'611.9
2018-Jul-18 02:00N 63°08' E 006°56'611.8
2018-Jul-18 01:30N 63°04' E 006°45'611.2
2018-Jul-18 00:59N 63°01' E 006°35'511.2
2018-Jul-18 00:30N 62°59' E 006°24'611.1
2018-Jul-18 00:00N 62°56' E 006°14'611.1
2018-Jul-17 23:30N 62°52' E 006°06'510.8
2018-Jul-17 23:00N 62°48' E 005°58'510.7
2018-Jul-17 22:30N 62°44' E 005°50'510.6
2018-Jul-17 22:00N 62°40' E 005°42'5 9.9
2018-Jul-17 21:30N 62°35' E 005°39'610.9
2018-Jul-17 21:00N 62°30' E 005°45'510.8
2018-Jul-17 20:30N 62°27' E 005°54'510.0
2018-Jul-17 20:00N 62°25' E 006°03'713.0
2018-Jul-17 19:30N 62°24' E 006°17'816.0
2018-Jul-17 19:00N 62°26' E 006°34'815.1
2018-Jul-17 18:30N 62°26' E 006°50'714.5
2018-Jul-17 18:00N 62°20' E 006°57'815.6
2018-Jul-17 17:30N 62°12' E 007°01'713.6
2018-Jul-17 17:00N 62°06' E 007°00'2 3.1
2018-Jul-17 16:30N 62°05' E 007°03'5 0.6
2018-Jul-17 07:25N 62°05' E 006°53'3 6.7
2018-Jul-17 07:00N 62°06' E 006°58'4 7.6
2018-Jul-17 06:31N 62°06' E 007°06'3 5.8
2018-Jul-17 06:00N 62°06' E 007°00'4 8.5
2018-Jul-17 05:31N 62°10' E 007°01'4 8.9
2018-Jul-17 05:00N 62°14' E 007°01'510.7
2018-Jul-17 04:30N 62°20' E 006°57'713.3
2018-Jul-17 04:00N 62°26' E 006°53'714.3
2018-Jul-17 03:30N 62°27' E 006°38'816.1
2018-Jul-17 03:00N 62°24' E 006°22'815.1
2018-Jul-17 02:30N 62°23' E 006°05'815.7
2018-Jul-17 02:00N 62°28' E 005°51'815.1
2018-Jul-17 01:30N 62°30' E 005°35'714.0
2018-Jul-17 01:00N 62°30' E 005°20'814.3
2018-Jul-17 00:29N 62°30' E 005°04'1913.6
2018-Jul-16 23:06N 62°16' E 004°37'114.4
2018-Jul-16 23:00N 62°15' E 004°35'1114.1
2018-Jul-16 22:15N 62°05' E 004°27'414.4
2018-Jul-16 21:59N 62°03' E 004°34'714.9
2018-Jul-16 21:30N 61°60' E 004°48'714.5
2018-Jul-16 21:00N 61°56' E 005°00'814.9
2018-Jul-16 20:30N 61°54' E 005°16'510.7
2018-Jul-16 20:00N 61°55' E 005°27'510.9
2018-Jul-16 19:30N 61°54' E 005°38'510.5
2018-Jul-16 19:00N 61°51' E 005°48'510.3
2018-Jul-16 18:30N 61°52' E 005°59'510.4
2018-Jul-16 17:59N 61°51' E 006°10'510.4
2018-Jul-16 17:30N 61°51' E 006°20'6 0.5
2018-Jul-16 05:37N 61°52' E 006°34'215.7
2018-Jul-16 05:30N 61°50' E 006°32'714.5
2018-Jul-16 04:59N 61°51' E 006°17'715.5
2018-Jul-16 04:30N 61°51' E 006°01'714.7
2018-Jul-16 04:00N 61°52' E 005°46'815.3
2018-Jul-16 03:30N 61°55' E 005°31'815.1
2018-Jul-16 03:00N 61°54' E 005°15'714.2
2018-Jul-16 02:30N 61°56' E 005°01'713.4
2018-Jul-16 01:58N 61°58' E 004°46'715.5
2018-Jul-16 01:30N 61°52' E 004°37'816.1
2018-Jul-16 01:00N 61°45' E 004°29'816.2
2018-Jul-16 00:30N 61°37' E 004°28'816.4
2018-Jul-15 23:59N 61°29' E 004°25'816.6
2018-Jul-15 23:30N 61°21' E 004°21'714.9
2018-Jul-15 23:00N 61°14' E 004°29'815.6
2018-Jul-15 22:30N 61°15' E 004°46'815.5
2018-Jul-15 22:00N 61°12' E 005°01'816.8
2018-Jul-15 21:30N 61°06' E 005°13'815.9
2018-Jul-15 20:59N 61°05' E 005°30'816.9
2018-Jul-15 20:30N 61°08' E 005°46'816.2
2018-Jul-15 20:00N 61°08' E 006°02'816.1
2018-Jul-15 19:30N 61°07' E 006°19'714.8
2018-Jul-15 19:00N 61°08' E 006°34'713.1
2018-Jul-15 18:30N 61°10' E 006°47'715.0
2018-Jul-15 18:00N 61°05' E 006°59'713.9
2018-Jul-15 17:30N 60°58' E 007°01'1 1.1
2018-Jul-15 16:59N 60°58' E 006°60'4 7.8
2018-Jul-15 16:30N 60°57' E 007°07'5 9.3
2018-Jul-15 16:00N 60°53' E 007°08'1 1.9
2018-Jul-15 15:28N 60°52' E 007°07'0 0.0
2018-Jul-15 14:58N 60°52' E 007°07'0 0.0
2018-Jul-15 14:28N 60°52' E 007°07'0 0.0
2018-Jul-15 13:58N 60°52' E 007°07'0 0.0
2018-Jul-15 13:28N 60°52' E 007°07'0 0.0
2018-Jul-15 12:58N 60°52' E 007°07'0 0.0
2018-Jul-15 12:28N 60°52' E 007°07'0 0.0
2018-Jul-15 11:58N 60°52' E 007°07'0 0.0
2018-Jul-15 11:28N 60°52' E 007°07'0 0.0
2018-Jul-15 10:58N 60°52' E 007°07'0 0.0
2018-Jul-15 10:28N 60°52' E 007°07'0 0.0
2018-Jul-15 09:58N 60°52' E 007°07'0 0.0
2018-Jul-15 09:28N 60°52' E 007°07'0 0.0
2018-Jul-15 08:58N 60°52' E 007°07'0 0.0
2018-Jul-15 08:28N 60°52' E 007°07'0 0.0
2018-Jul-15 07:58N 60°52' E 007°07'0 0.0
2018-Jul-15 07:28N 60°52' E 007°07'0 0.0
2018-Jul-15 06:58N 60°52' E 007°07'0 0.0
2018-Jul-15 06:28N 60°52' E 007°07'0 0.0
2018-Jul-15 05:58N 60°52' E 007°07'0 0.0
2018-Jul-15 05:29N 60°52' E 007°07'0 0.7
2018-Jul-15 05:00N 60°52' E 007°08'2 3.5
2018-Jul-15 04:30N 60°54' E 007°09'510.0
2018-Jul-15 03:59N 60°58' E 007°05'510.9
2018-Jul-15 03:30N 61°04' E 007°01'611.9
2018-Jul-15 03:00N 61°08' E 006°53'612.3
2018-Jul-15 02:30N 61°11' E 006°42'510.4
2018-Jul-15 02:00N 61°08' E 006°33'612.2
2018-Jul-15 01:30N 61°06' E 006°21'612.7
2018-Jul-15 01:00N 61°08' E 006°08'611.4
2018-Jul-15 00:30N 61°08' E 005°56'613.2
2018-Jul-15 00:00N 61°07' E 005°43'816.1
2018-Jul-14 23:30N 61°04' E 005°27'815.9
2018-Jul-14 23:00N 61°06' E 005°11'815.9
2018-Jul-14 22:30N 61°03' E 004°56'816.2
2018-Jul-14 22:00N 60°57' E 004°43'815.6
2018-Jul-14 21:30N 60°51' E 004°34'713.4
2018-Jul-14 21:00N 60°45' E 004°29'816.0
2018-Jul-14 20:30N 60°37' E 004°34'816.7
2018-Jul-14 20:00N 60°29' E 004°38'917.1
2018-Jul-14 19:29N 60°20' E 004°43'817.1
2018-Jul-14 19:00N 60°12' E 004°47'816.5
2018-Jul-14 18:30N 60°04' E 004°51'815.6
2018-Jul-14 18:00N 59°57' E 004°57'815.9
2018-Jul-14 17:30N 59°58' E 005°12'713.9
2018-Jul-14 17:00N 59°57' E 005°26'815.6
2018-Jul-14 16:30N 59°50' E 005°33'4 8.3
2018-Jul-14 16:01N 59°52' E 005°41'816.0
2018-Jul-14 15:30N 59°58' E 005°50'815.9
2018-Jul-14 15:00N 60°04' E 006°00'5 9.6
2018-Jul-14 14:29N 60°06' E 006°10'9 9.3
2018-Jul-14 13:30N 60°15' E 006°11'613.2
2018-Jul-14 13:00N 60°21' E 006°18'610.8
2018-Jul-14 12:30N 60°24' E 006°26'713.7
2018-Jul-14 12:00N 60°26' E 006°40'815.1
2018-Jul-14 11:28N 60°29' E 006°54'5 9.6
2018-Jul-14 11:00N 60°29' E 007°03'4 7.8
2018-Jul-14 10:30N 60°29' E 006°56'510.4
2018-Jul-14 09:59N 60°27' E 006°46'5 9.3
2018-Jul-14 09:30N 60°26' E 006°37'510.3
2018-Jul-14 09:00N 60°25' E 006°27'611.4
2018-Jul-14 08:30N 60°21' E 006°18'611.4
2018-Jul-14 08:01N 60°16' E 006°12'611.2
2018-Jul-14 07:30N 60°12' E 006°04'611.2
2018-Jul-14 07:00N 60°07' E 006°05'611.7
2018-Jul-14 06:30N 60°02' E 005°57'611.7
2018-Jul-14 06:00N 59°58' E 005°49'611.6
2018-Jul-14 05:30N 59°53' E 005°43'611.4
2018-Jul-14 04:59N 59°48' E 005°36'510.4
2018-Jul-14 04:30N 59°44' E 005°30'714.0
2018-Jul-14 04:00N 59°39' E 005°20'713.2
2018-Jul-14 03:29N 59°34' E 005°12'511.3
2018-Jul-14 03:00N 59°34' E 005°01'611.3
2018-Jul-14 02:29N 59°34' E 004°50'25 9.2
2018-Jul-13 23:48N 59°12' E 004°28'715.5
2018-Jul-13 23:20N 59°09' E 004°41'616.0
2018-Jul-13 22:59N 59°07' E 004°51'815.9
2018-Jul-13 22:30N 59°04' E 005°05'815.5
2018-Jul-13 22:00N 59°05' E 005°19'612.6
2018-Jul-13 21:30N 59°06' E 005°32'713.6
2018-Jul-13 21:00N 59°01' E 005°41'713.5
2018-Jul-13 20:30N 58°59' E 005°53'815.0
2018-Jul-13 20:00N 58°54' E 006°04'611.8
2018-Jul-13 19:30N 58°59' E 006°11'815.7
2018-Jul-13 19:00N 59°01' E 006°25'4 7.0
2018-Jul-13 18:30N 59°02' E 006°32'714.6
2018-Jul-13 18:00N 59°00' E 006°19'713.3
2018-Jul-13 17:31N 58°57' E 006°08'4 7.6
2018-Jul-13 17:01N 58°55' E 006°01'816.8
2018-Jul-13 16:30N 59°01' E 005°49'612.4
2018-Jul-13 16:00N 59°02' E 005°37'713.8
2018-Jul-13 15:30N 59°06' E 005°27'611.8
2018-Jul-13 15:00N 59°02' E 005°20'1615.5
2018-Jul-13 14:00N 58°49' E 005°01'815.4
2018-Jul-13 13:30N 58°44' E 004°51'815.4
2018-Jul-13 13:00N 58°38' E 004°41'815.3
2018-Jul-13 12:30N 58°33' E 004°31'815.4
2018-Jul-13 12:00N 58°27' E 004°21'815.7
2018-Jul-13 11:30N 58°22' E 004°09'1215.6
2018-Jul-13 10:45N 58°15' E 003°51'415.6
2018-Jul-13 10:30N 58°13' E 003°45'815.6
2018-Jul-13 09:58N 58°08' E 003°32'815.8
2018-Jul-13 09:29N 58°04' E 003°20'816.0
2018-Jul-13 09:00N 57°59' E 003°08'816.1
2018-Jul-13 08:29N 57°54' E 002°56'816.3
2018-Jul-13 07:58N 57°49' E 002°43'816.3
2018-Jul-13 07:31N 57°45' E 002°32'16315.9
2018-Jul-12 21:19N 56°19' W 001°42'1516.2
2018-Jul-12 20:22N 56°13' W 002°07'616.3
2018-Jul-12 20:01N 56°11' W 002°17'816.2
2018-Jul-12 19:31N 56°07' W 002°30'816.1
2018-Jul-12 19:01N 56°06' W 002°44'816.3
2018-Jul-12 18:31N 56°03' W 002°58'612.2
2018-Jul-12 18:01N 56°03' W 003°09'9 0.7
2018-Jul-12 05:40N 56°01' W 003°25'1 6.5
2018-Jul-12 05:30N 56°00' W 003°23'510.5
2018-Jul-12 05:00N 56°02' W 003°14'611.3
2018-Jul-12 04:30N 56°04' W 003°05'612.3
2018-Jul-12 04:00N 56°06' W 002°54'5 9.4
2018-Jul-12 03:29N 56°07' W 002°46'510.2
2018-Jul-12 03:01N 56°07' W 002°37'5 9.6
2018-Jul-12 02:30N 56°09' W 002°29'5 9.9
2018-Jul-12 02:00N 56°11' W 002°21'510.0
2018-Jul-12 01:30N 56°13' W 002°13'7311.4
2018-Jul-11 19:08N 57°03' W 000°37'511.2
2018-Jul-11 18:41N 57°07' W 000°31'211.2
2018-Jul-11 18:29N 57°09' W 000°28'611.1
2018-Jul-11 17:56N 57°13' W 000°20'1710.9
2018-Jul-11 16:21N 57°25' E 000°03'411.1
2018-Jul-11 16:00N 57°28' E 000°08'611.4
2018-Jul-11 15:28N 57°32' E 000°17'611.5
2018-Jul-11 14:58N 57°36' E 000°24'911.6
2018-Jul-11 14:11N 57°42' E 000°36'211.9
2018-Jul-11 13:59N 57°44' E 000°40'3311.9
2018-Jul-11 11:12N 58°08' E 001°22'311.8
2018-Jul-11 10:58N 58°10' E 001°26'711.8
2018-Jul-11 10:22N 58°15' E 001°36'411.9
2018-Jul-11 10:00N 58°18' E 001°41'611.6
2018-Jul-11 09:30N 58°23' E 001°49'4811.3
2018-Jul-11 05:17N 58°54' E 002°57'1311.2
2018-Jul-11 04:06N 59°05' E 003°12'111.5
2018-Jul-11 03:59N 59°06' E 003°14'611.4
2018-Jul-11 03:29N 59°10' E 003°21'611.5
2018-Jul-11 02:57N 59°15' E 003°28'511.5
2018-Jul-11 02:30N 59°19' E 003°34'711.6
2018-Jul-11 01:55N 59°25' E 003°41'511.2
2018-Jul-11 01:30N 59°29' E 003°45'711.2
2018-Jul-11 00:53N 59°35' E 003°51'410.8
2018-Jul-11 00:30N 59°39' E 003°55'610.9
2018-Jul-10 23:58N 59°43' E 004°04'510.8
2018-Jul-10 23:28N 59°46' E 004°12'510.8
2018-Jul-10 22:59N 59°50' E 004°20'611.2
2018-Jul-10 22:29N 59°54' E 004°27'611.8
2018-Jul-10 22:00N 59°59' E 004°34'611.4
2018-Jul-10 21:30N 60°03' E 004°42'815.8
2018-Jul-10 21:00N 60°08' E 004°54'713.3
2018-Jul-10 20:30N 60°10' E 005°07'713.8
2018-Jul-10 20:00N 60°17' E 005°11'612.1
2018-Jul-10 19:30N 60°23' E 005°10'4 8.8
2018-Jul-10 19:00N 60°24' E 005°18'0 0.4
2018-Jul-10 18:30N 60°24' E 005°19'0 0.0
2018-Jul-10 18:00N 60°24' E 005°19'0 0.0
2018-Jul-10 17:30N 60°24' E 005°19'0 0.0
2018-Jul-10 17:00N 60°24' E 005°19'0 0.0
2018-Jul-10 16:30N 60°24' E 005°19'0 0.0
2018-Jul-10 16:00N 60°24' E 005°19'0 0.0
2018-Jul-10 15:30N 60°24' E 005°19'0 0.0
2018-Jul-10 15:00N 60°24' E 005°19'0 0.0
2018-Jul-10 14:30N 60°24' E 005°19'0 0.0
2018-Jul-10 14:00N 60°24' E 005°19'0 0.0
2018-Jul-10 13:30N 60°24' E 005°19'0 0.0
2018-Jul-10 13:00N 60°24' E 005°19'0 0.0
2018-Jul-10 12:30N 60°24' E 005°19'0 0.0
2018-Jul-10 12:00N 60°24' E 005°19'0 0.0
2018-Jul-10 11:30N 60°24' E 005°19'0 0.0
2018-Jul-10 11:00N 60°24' E 005°19'0 0.0
2018-Jul-10 10:30N 60°24' E 005°19'0 0.0
2018-Jul-10 10:00N 60°24' E 005°19'0 0.0
2018-Jul-10 09:30N 60°24' E 005°19'0 0.0
2018-Jul-10 09:00N 60°24' E 005°19'0 0.0
2018-Jul-10 08:30N 60°24' E 005°19'0 0.0
2018-Jul-10 08:00N 60°24' E 005°19'0 0.0
2018-Jul-10 07:30N 60°24' E 005°19'0 0.0
2018-Jul-10 07:00N 60°24' E 005°19'0 0.0
2018-Jul-10 06:30N 60°24' E 005°19'2 3.4
2018-Jul-10 06:00N 60°24' E 005°15'5 9.3
2018-Jul-10 05:30N 60°20' E 005°12'714.4
2018-Jul-10 05:00N 60°13' E 005°11'612.0
2018-Jul-10 04:30N 60°09' E 005°02'612.2
2018-Jul-10 04:00N 60°08' E 004°50'714.4
2018-Jul-10 03:30N 60°08' E 004°35'  

Dump ship's entire track history